createdAt,value
2022-12-25T00:00:56.631Z,68.70
2022-12-25T00:05:50.362Z,58.30
2022-12-25T00:08:17.657Z,57.30
2022-12-25T00:10:45.536Z,63.20
2022-12-25T00:13:12.596Z,63.70
2022-12-25T00:18:06.832Z,57.80
2022-12-25T00:20:33.507Z,54.80
2022-12-25T00:23:00.342Z,57.20
2022-12-25T00:25:27.078Z,54.00
2022-12-25T00:27:53.825Z,59.40
2022-12-25T00:32:47.226Z,51.10
2022-12-25T00:35:13.963Z,50.00
2022-12-25T00:37:40.646Z,48.40
2022-12-25T00:40:08.173Z,52.40
2022-12-25T00:42:34.967Z,45.70
2022-12-25T00:45:01.734Z,54.40
2022-12-25T00:49:55.312Z,48.50
2022-12-25T00:52:22.221Z,48.60
2022-12-25T00:54:48.947Z,54.40
2022-12-25T00:57:15.701Z,46.80
2022-12-25T00:59:42.436Z,48.00
2022-12-25T01:02:24.758Z,44.20
2022-12-25T01:04:55.779Z,49.10
2022-12-25T01:07:24.090Z,44.10
2022-12-25T01:10:09.812Z,46.70
2022-12-25T01:12:38.608Z,49.00
2022-12-25T01:15:07.168Z,44.60
2022-12-25T01:17:34.061Z,44.10
2022-12-25T01:20:00.845Z,45.30
2022-12-25T01:22:27.570Z,42.50
2022-12-25T01:24:54.242Z,45.50
2022-12-25T01:27:20.968Z,43.80
2022-12-25T01:29:47.644Z,41.80
2022-12-25T01:32:14.454Z,41.90
2022-12-25T01:34:41.267Z,38.40
2022-12-25T01:37:07.994Z,40.30
2022-12-25T01:39:34.732Z,42.60
2022-12-25T01:42:01.490Z,43.40
2022-12-25T01:44:37.507Z,39.70
2022-12-25T01:47:04.707Z,40.30
2022-12-25T01:49:31.906Z,39.80
2022-12-25T01:52:01.094Z,41.20
2022-12-25T01:54:34.407Z,43.20
2022-12-25T01:57:02.397Z,42.60
2022-12-25T01:59:29.229Z,42.20
2022-12-25T02:01:56.665Z,40.20
2022-12-25T02:04:38.825Z,37.40
2022-12-25T02:07:05.648Z,37.30
2022-12-25T02:09:32.609Z,37.40
2022-12-25T02:11:59.339Z,44.20
2022-12-25T02:14:28.033Z,38.70
2022-12-25T02:17:10.983Z,37.90
2022-12-25T02:19:46.940Z,40.40
2022-12-25T02:22:34.114Z,37.60
2022-12-25T02:25:13.347Z,37.80
2022-12-25T02:27:54.830Z,40.20
2022-12-25T02:30:22.239Z,39.00
2022-12-25T02:33:21.261Z,36.30
2022-12-25T02:35:51.030Z,36.40
2022-12-25T02:38:24.267Z,36.40
2022-12-25T02:40:58.446Z,37.50
2022-12-25T02:43:55.467Z,38.30
2022-12-25T02:46:41.841Z,35.50
2022-12-25T02:49:29.275Z,33.30
2022-12-25T02:52:17.328Z,37.10
2022-12-25T02:57:52.608Z,32.30
2022-12-25T03:00:38.794Z,32.60
2022-12-25T03:03:24.709Z,32.50
2022-12-25T03:06:10.069Z,31.50
2022-12-25T03:08:38.735Z,34.60
2022-12-25T03:11:26.473Z,32.70
2022-12-25T03:13:55.874Z,31.90
2022-12-25T03:16:41.225Z,33.10
2022-12-25T03:19:27.996Z,33.50
2022-12-25T03:22:13.435Z,30.90
2022-12-25T03:24:58.850Z,28.80
2022-12-25T03:27:25.820Z,25.30
2022-12-25T03:30:11.138Z,29.70
2022-12-25T03:32:41.562Z,27.00
2022-12-25T03:35:24.172Z,26.30
2022-12-25T03:38:25.949Z,28.60
2022-12-25T03:41:20.980Z,25.70
2022-12-25T03:44:14.844Z,24.80
2022-12-25T03:47:05.439Z,23.70
2022-12-25T03:50:13.468Z,24.00
2022-12-25T03:52:58.830Z,20.60
2022-12-25T03:55:44.175Z,23.70
2022-12-25T03:58:37.249Z,25.10
2022-12-25T04:01:22.732Z,24.50
2022-12-25T04:04:08.413Z,24.50
2022-12-25T04:06:53.731Z,23.20
2022-12-25T04:09:39.068Z,21.80
2022-12-25T04:12:25.136Z,25.30
2022-12-25T04:15:10.652Z,22.10
2022-12-25T04:17:56.022Z,19.90
2022-12-25T04:20:41.370Z,22.00
2022-12-25T04:23:26.554Z,23.40
2022-12-25T04:26:11.933Z,20.10
2022-12-25T04:28:57.395Z,21.90
2022-12-25T04:31:43.030Z,23.90
2022-12-25T04:34:28.393Z,25.20
2022-12-25T04:36:55.114Z,29.80
2022-12-25T04:39:21.827Z,62.80
2022-12-25T04:41:48.539Z,39.10
2022-12-25T04:44:15.223Z,25.50
2022-12-25T04:46:42.021Z,39.50
2022-12-25T04:51:36.281Z,45.60
2022-12-25T04:54:03.110Z,31.50
2022-12-25T04:58:56.450Z,24.00
2022-12-25T05:01:23.251Z,22.30
2022-12-25T05:06:16.750Z,21.00
2022-12-25T05:08:43.581Z,20.10
2022-12-25T05:11:12.473Z,18.90
2022-12-25T05:13:39.484Z,16.80
2022-12-25T05:16:12.118Z,21.00
2022-12-25T05:18:38.927Z,21.20
2022-12-25T05:21:07.795Z,20.30
2022-12-25T05:23:34.549Z,21.80
2022-12-25T05:26:06.035Z,43.40
2022-12-25T05:28:34.840Z,51.30
2022-12-25T05:31:01.842Z,55.40
2022-12-25T05:33:28.588Z,55.10
2022-12-25T05:35:55.313Z,52.60
2022-12-25T05:38:22.022Z,77.00
2022-12-25T05:40:51.110Z,24.90
2022-12-25T05:43:19.410Z,18.80
2022-12-25T05:45:46.079Z,19.80
2022-12-25T05:48:12.768Z,16.40
2022-12-25T05:50:39.505Z,17.10
2022-12-25T05:53:09.808Z,17.10
2022-12-25T05:55:37.171Z,14.10
2022-12-25T05:58:04.406Z,13.30
2022-12-25T06:00:31.081Z,13.60
2022-12-25T06:02:58.070Z,13.80
2022-12-25T06:05:24.808Z,13.80
2022-12-25T06:07:51.452Z,14.40
2022-12-25T06:10:18.224Z,9.40
2022-12-25T06:15:12.801Z,19.70
2022-12-25T06:17:39.533Z,20.60
2022-12-25T06:20:07.437Z,26.10
2022-12-25T06:22:34.268Z,32.20
2022-12-25T06:25:01.178Z,23.30
2022-12-25T06:27:28.608Z,19.20
2022-12-25T06:29:55.571Z,16.30
2022-12-25T06:32:22.275Z,11.50
2022-12-25T06:34:48.964Z,11.80
2022-12-25T06:37:15.619Z,13.10
2022-12-25T06:39:42.310Z,12.40
2022-12-25T06:42:09.105Z,13.00
2022-12-25T06:44:35.794Z,15.40
2022-12-25T06:47:02.469Z,15.10
2022-12-25T06:49:29.166Z,12.50
2022-12-25T06:51:55.884Z,14.70
2022-12-25T06:54:22.595Z,30.00
2022-12-25T06:56:49.829Z,14.00
2022-12-25T06:59:16.562Z,8.30
2022-12-25T07:01:43.394Z,9.80
2022-12-25T07:06:43.979Z,9.30
2022-12-25T07:09:10.804Z,9.60
2022-12-25T07:14:04.181Z,8.90
2022-12-25T07:16:30.936Z,10.00
2022-12-25T07:19:00.284Z,9.90
2022-12-25T07:21:27.005Z,9.30
2022-12-25T07:23:53.699Z,10.10
2022-12-25T07:26:20.977Z,7.90
2022-12-25T07:28:47.739Z,6.80
2022-12-25T07:31:15.169Z,8.90
2022-12-25T07:33:42.066Z,8.60
2022-12-25T07:36:12.415Z,7.50
2022-12-25T07:38:43.426Z,9.10
2022-12-25T07:41:11.416Z,7.70
2022-12-25T07:43:38.127Z,8.50
2022-12-25T07:46:05.121Z,7.40
2022-12-25T07:48:31.854Z,7.70
2022-12-25T07:50:59.602Z,8.00
2022-12-25T07:53:26.764Z,6.80
2022-12-25T07:56:13.153Z,9.00
2022-12-25T07:58:40.172Z,12.10
2022-12-25T08:01:15.161Z,11.90
2022-12-25T08:03:42.080Z,8.40
2022-12-25T08:08:36.396Z,9.50
2022-12-25T08:11:03.196Z,7.70
2022-12-25T08:15:58.777Z,7.10
2022-12-25T08:18:29.844Z,10.10
2022-12-25T08:20:57.364Z,7.30
2022-12-25T08:25:50.641Z,9.40
2022-12-25T08:28:17.347Z,9.50
2022-12-25T08:30:44.035Z,9.00
2022-12-25T08:33:10.722Z,12.10
2022-12-25T08:35:37.412Z,11.30
2022-12-25T08:38:04.082Z,11.00
2022-12-25T08:40:30.760Z,21.30
2022-12-25T08:42:57.540Z,15.20
2022-12-25T08:45:27.381Z,14.20
2022-12-25T08:47:58.040Z,17.90
2022-12-25T08:50:24.871Z,11.80
2022-12-25T08:55:18.159Z,20.10
2022-12-25T08:57:44.813Z,10.90
2022-12-25T09:00:11.931Z,14.40
2022-12-25T09:02:38.718Z,8.30
2022-12-25T09:07:32.432Z,8.40
2022-12-25T09:09:59.154Z,7.60
2022-12-25T09:12:25.823Z,10.50
2022-12-25T09:14:52.529Z,8.80
2022-12-25T09:17:19.602Z,8.70
2022-12-25T09:19:46.265Z,11.40
2022-12-25T09:22:12.927Z,14.40
2022-12-25T09:24:39.650Z,7.70
2022-12-25T09:27:07.170Z,17.50
2022-12-25T09:29:33.889Z,18.10
2022-12-25T09:32:00.664Z,30.20
2022-12-25T09:34:27.573Z,22.50
2022-12-25T09:36:54.288Z,13.70
2022-12-25T09:42:01.618Z,8.80
2022-12-25T09:44:30.926Z,10.70
2022-12-25T09:47:00.666Z,9.70
2022-12-25T09:49:37.229Z,18.60
2022-12-25T09:52:07.722Z,26.40
2022-12-25T09:54:59.381Z,24.60
2022-12-25T09:57:26.297Z,22.70
2022-12-25T10:02:48.747Z,13.90
2022-12-25T10:05:31.744Z,26.00
2022-12-25T10:08:24.348Z,28.50
2022-12-25T10:10:53.056Z,10.20
2022-12-25T10:13:41.633Z,8.00
2022-12-25T10:16:18.469Z,9.80
2022-12-25T10:18:53.018Z,9.10
2022-12-25T10:21:19.964Z,10.70
2022-12-25T10:26:19.298Z,10.50
2022-12-25T10:28:48.433Z,12.20
2022-12-25T10:31:27.040Z,10.20
2022-12-25T10:33:54.135Z,10.90
2022-12-25T10:36:23.694Z,9.80
2022-12-25T10:38:50.424Z,9.30
2022-12-25T10:41:46.445Z,36.70
2022-12-25T10:44:24.642Z,11.90
2022-12-25T10:46:53.655Z,8.60
2022-12-25T10:49:21.861Z,9.00
2022-12-25T10:51:48.661Z,7.50
2022-12-25T10:57:08.930Z,7.00
2022-12-25T10:59:44.991Z,7.30
2022-12-25T11:02:20.205Z,6.10
2022-12-25T11:04:47.322Z,6.90
2022-12-25T11:07:21.680Z,33.70
2022-12-25T11:10:02.640Z,14.60
2022-12-25T11:12:34.580Z,11.70
2022-12-25T11:15:03.919Z,10.40
2022-12-25T11:17:30.651Z,13.50
2022-12-25T11:20:01.049Z,13.20
2022-12-25T11:22:29.253Z,10.90
2022-12-25T11:24:56.030Z,8.20
2022-12-25T11:30:01.933Z,11.30
2022-12-25T11:32:32.821Z,12.40
2022-12-25T11:34:59.987Z,15.80
2022-12-25T11:37:26.705Z,8.90
2022-12-25T11:39:53.427Z,21.00
2022-12-25T11:42:33.414Z,12.40
2022-12-25T11:45:06.545Z,9.60
2022-12-25T11:47:49.156Z,8.80
2022-12-25T11:50:34.225Z,7.30
2022-12-25T11:53:02.797Z,7.90
2022-12-25T11:55:29.491Z,9.70
2022-12-25T11:57:58.565Z,8.90
2022-12-25T12:00:25.268Z,6.20
2022-12-25T12:02:58.842Z,7.60
2022-12-25T12:05:32.644Z,8.10
2022-12-25T12:08:01.499Z,8.20
2022-12-25T12:10:33.631Z,6.40
2022-12-25T12:13:06.490Z,8.70
2022-12-25T12:15:43.019Z,8.60
2022-12-25T12:18:28.148Z,10.20
2022-12-25T12:21:08.542Z,10.80
2022-12-25T12:23:56.393Z,122.20
2022-12-25T12:26:30.672Z,25.00
2022-12-25T12:29:01.297Z,12.10
2022-12-25T12:31:41.943Z,9.20
2022-12-25T12:34:27.664Z,7.30
2022-12-25T12:37:07.863Z,7.90
2022-12-25T12:39:38.586Z,7.10
2022-12-25T12:42:15.895Z,10.20
2022-12-25T12:44:42.644Z,10.30
2022-12-25T12:47:09.360Z,8.30
2022-12-25T12:49:36.054Z,12.00
2022-12-25T12:52:22.427Z,10.80
2022-12-25T12:55:13.911Z,10.40
2022-12-25T12:57:40.737Z,8.30
2022-12-25T13:02:43.688Z,13.00
2022-12-25T13:07:49.112Z,20.70
2022-12-25T13:10:35.079Z,47.20
2022-12-25T13:13:06.984Z,29.30
2022-12-25T13:15:34.308Z,25.20
2022-12-25T13:18:06.154Z,12.50
2022-12-25T13:20:54.820Z,13.30
2022-12-25T13:23:23.668Z,12.30
2022-12-25T13:25:55.003Z,18.70
2022-12-25T13:28:29.075Z,15.30
2022-12-25T13:31:21.361Z,19.80
2022-12-25T13:33:51.188Z,12.40
2022-12-25T13:36:17.972Z,10.00
2022-12-25T13:38:49.334Z,10.70
2022-12-25T13:41:42.575Z,10.20
2022-12-25T13:44:21.000Z,11.50
2022-12-25T13:46:47.813Z,9.90
2022-12-25T13:51:45.715Z,11.00
2022-12-25T13:54:14.172Z,9.20
2022-12-25T13:56:49.571Z,10.90
2022-12-25T13:59:17.445Z,12.40
2022-12-25T14:01:44.921Z,12.70
2022-12-25T14:04:19.912Z,15.40
2022-12-25T14:06:47.242Z,12.90
2022-12-25T14:09:14.064Z,12.60
2022-12-25T14:14:15.241Z,10.30
2022-12-25T14:16:43.587Z,10.00
2022-12-25T14:19:40.080Z,13.20
2022-12-25T14:22:11.262Z,9.40
2022-12-25T14:24:38.191Z,8.70
2022-12-25T14:29:38.959Z,9.40
2022-12-25T14:32:20.726Z,9.00
2022-12-25T14:34:48.050Z,22.00
2022-12-25T14:37:32.891Z,10.10
2022-12-25T14:40:17.994Z,11.90
2022-12-25T14:42:44.731Z,10.10
2022-12-25T14:45:26.473Z,11.10
2022-12-25T14:47:54.526Z,11.80
2022-12-25T14:50:31.483Z,11.40
2022-12-25T14:52:58.913Z,13.00
2022-12-25T14:55:27.598Z,14.60
2022-12-25T14:57:58.716Z,17.00
2022-12-25T15:00:34.988Z,17.10
2022-12-25T15:03:01.873Z,19.30
2022-12-25T15:05:38.860Z,19.40
2022-12-25T15:08:08.733Z,17.30
2022-12-25T15:13:22.726Z,15.40
2022-12-25T15:15:51.036Z,20.20
2022-12-25T15:18:17.932Z,16.10
2022-12-25T15:23:21.723Z,18.00
2022-12-25T15:25:48.666Z,17.90
2022-12-25T15:30:42.231Z,16.30
2022-12-25T15:35:44.387Z,30.70
2022-12-25T15:38:12.239Z,26.30
2022-12-25T15:40:40.319Z,18.40
2022-12-25T15:43:14.371Z,15.70
2022-12-25T15:45:49.149Z,58.00
2022-12-25T15:48:15.918Z,16.10
2022-12-25T15:50:44.275Z,13.50
2022-12-25T15:53:11.111Z,14.70
2022-12-25T15:58:04.653Z,11.50
2022-12-25T16:00:31.438Z,12.30
2022-12-25T16:02:58.296Z,11.10
2022-12-25T16:05:25.167Z,13.60
2022-12-25T16:07:51.890Z,12.60
2022-12-25T16:12:45.940Z,14.60
2022-12-25T16:15:13.878Z,13.80
2022-12-25T16:17:40.633Z,10.40
2022-12-25T16:20:08.091Z,20.90
2022-12-25T16:22:40.160Z,20.00
2022-12-25T16:25:12.238Z,11.90
2022-12-25T16:27:38.953Z,12.30
2022-12-25T16:30:06.135Z,12.10
2022-12-25T16:32:33.290Z,10.00
2022-12-25T16:35:01.062Z,11.80
2022-12-25T16:37:27.762Z,10.80
2022-12-25T16:39:54.515Z,12.90
2022-12-25T16:42:21.250Z,11.60
2022-12-25T16:44:47.993Z,28.30
2022-12-25T16:47:14.732Z,21.80
2022-12-25T16:49:41.810Z,15.10
2022-12-25T16:52:08.515Z,15.80
2022-12-25T16:54:35.399Z,13.10
2022-12-25T16:59:29.580Z,10.30
2022-12-25T17:01:56.397Z,13.10
2022-12-25T17:06:49.863Z,11.30
2022-12-25T17:09:16.595Z,12.10
2022-12-25T17:11:43.277Z,11.60
2022-12-25T17:14:10.058Z,12.70
2022-12-25T17:16:37.167Z,13.80
2022-12-25T17:19:09.686Z,13.40
2022-12-25T17:21:38.171Z,14.30
2022-12-25T17:24:05.894Z,12.60
2022-12-25T17:26:32.936Z,12.80
2022-12-25T17:29:00.033Z,14.20
2022-12-25T17:31:28.425Z,12.20
2022-12-25T17:33:55.174Z,14.30
2022-12-25T17:36:21.991Z,16.30
2022-12-25T17:38:48.779Z,14.50
2022-12-25T17:41:16.593Z,14.00
2022-12-25T17:43:45.627Z,29.60
2022-12-25T17:46:17.760Z,16.80
2022-12-25T17:48:44.989Z,13.00
2022-12-25T17:51:13.375Z,12.80
2022-12-25T17:53:41.785Z,12.60
2022-12-25T17:56:09.634Z,12.20
2022-12-25T17:58:37.157Z,12.80
2022-12-25T18:01:15.285Z,13.80
2022-12-25T18:03:42.939Z,13.10
2022-12-25T18:06:14.757Z,15.90
2022-12-25T18:08:41.978Z,14.00
2022-12-25T18:11:15.224Z,15.60
2022-12-25T18:13:44.809Z,18.00
2022-12-25T18:16:12.531Z,19.30
2022-12-25T18:18:39.537Z,21.70
2022-12-25T18:23:33.274Z,22.50
2022-12-25T18:26:05.878Z,20.40
2022-12-25T18:28:32.704Z,17.40
2022-12-25T18:33:26.254Z,17.90
2022-12-25T18:35:59.685Z,19.30
2022-12-25T18:38:27.179Z,16.20
2022-12-25T18:43:20.813Z,20.50
2022-12-25T18:46:07.592Z,18.30
2022-12-25T18:51:03.143Z,15.40
2022-12-25T18:53:30.165Z,19.60
2022-12-25T18:55:57.925Z,13.90
2022-12-25T18:58:25.180Z,15.70
2022-12-25T19:00:52.591Z,15.90
2022-12-25T19:03:19.608Z,13.60
2022-12-25T19:05:46.724Z,17.40
2022-12-25T19:08:13.475Z,15.40
2022-12-25T19:10:41.278Z,18.50
2022-12-25T19:13:08.179Z,16.20
2022-12-25T19:18:02.763Z,17.70
2022-12-25T19:20:29.479Z,21.90
2022-12-25T19:22:57.596Z,16.40
2022-12-25T19:25:24.349Z,16.00
2022-12-25T19:27:51.112Z,41.90
2022-12-25T19:32:45.076Z,29.70
2022-12-25T19:35:12.211Z,20.10
2022-12-25T19:37:38.967Z,18.10
2022-12-25T19:40:06.074Z,18.00
2022-12-25T19:42:32.831Z,19.70
2022-12-25T19:44:59.597Z,21.00
2022-12-25T19:49:53.676Z,21.50
2022-12-25T19:52:23.805Z,19.60
2022-12-25T19:54:52.251Z,16.60
2022-12-25T19:57:19.007Z,17.50
2022-12-25T19:59:45.758Z,15.60
2022-12-25T20:02:12.635Z,18.50
2022-12-25T20:04:39.358Z,18.10
2022-12-25T20:07:06.079Z,17.20
2022-12-25T20:09:32.790Z,15.10
2022-12-25T20:11:59.519Z,14.20
2022-12-25T20:14:26.270Z,13.30
2022-12-25T20:16:54.151Z,12.50
2022-12-25T20:19:20.844Z,14.40
2022-12-25T20:21:47.699Z,12.70
2022-12-25T20:26:41.247Z,14.80
2022-12-25T20:29:08.212Z,13.50
2022-12-25T20:34:09.385Z,11.70
2022-12-25T20:36:37.579Z,15.10
2022-12-25T20:39:08.244Z,15.30
2022-12-25T20:41:35.248Z,13.80
2022-12-25T20:44:04.087Z,12.20
2022-12-25T20:46:30.897Z,13.60
2022-12-25T20:51:25.220Z,14.10
2022-12-25T20:53:52.150Z,14.90
2022-12-25T20:56:19.795Z,14.20
2022-12-25T20:58:46.588Z,13.40
2022-12-25T21:01:15.604Z,14.30
2022-12-25T21:03:42.531Z,14.10
2022-12-25T21:06:09.818Z,12.90
2022-12-25T21:08:36.757Z,13.90
2022-12-25T21:11:04.338Z,14.20
2022-12-25T21:13:33.872Z,14.90
2022-12-25T21:16:00.730Z,14.50
2022-12-25T21:20:56.262Z,15.80
2022-12-25T21:23:23.387Z,15.50
2022-12-25T21:25:50.115Z,17.00
2022-12-25T21:30:43.661Z,16.30
2022-12-25T21:35:57.076Z,16.60
2022-12-25T21:38:23.796Z,19.60
2022-12-25T21:40:50.604Z,18.30
2022-12-25T21:45:44.531Z,20.10
2022-12-25T21:50:56.575Z,20.00
2022-12-25T21:53:23.276Z,16.70
2022-12-25T21:58:50.294Z,20.20
2022-12-25T22:01:17.256Z,17.50
2022-12-25T22:03:44.431Z,16.00
2022-12-25T22:06:30.448Z,18.30
2022-12-25T22:08:57.299Z,16.30
2022-12-25T22:14:52.342Z,18.80
2022-12-25T22:17:40.868Z,17.00
2022-12-25T22:20:09.728Z,17.80
2022-12-25T22:22:36.494Z,17.30
2022-12-25T22:25:04.858Z,14.20
2022-12-25T22:27:33.063Z,15.30
2022-12-25T22:29:59.797Z,17.70
2022-12-25T22:32:26.996Z,18.20
2022-12-25T22:34:53.738Z,13.70
2022-12-25T22:37:20.475Z,16.90
2022-12-25T22:39:47.807Z,15.90
2022-12-25T22:42:14.536Z,15.80
2022-12-25T22:44:41.303Z,16.50
2022-12-25T22:47:08.439Z,16.30
2022-12-25T22:52:02.351Z,18.10
2022-12-25T22:54:30.992Z,13.70
2022-12-25T22:56:58.051Z,14.50
2022-12-25T22:59:24.852Z,14.40
2022-12-25T23:01:51.612Z,15.10
2022-12-25T23:06:46.492Z,11.20
2022-12-25T23:09:18.886Z,15.90
2022-12-25T23:11:48.962Z,14.30
2022-12-25T23:14:34.227Z,15.40
2022-12-25T23:17:01.101Z,16.30
2022-12-25T23:22:32.020Z,15.10
2022-12-25T23:25:17.317Z,14.50
2022-12-25T23:27:44.640Z,21.90
2022-12-25T23:30:13.177Z,15.80
2022-12-25T23:32:39.888Z,12.60
2022-12-25T23:35:07.206Z,20.10
2022-12-25T23:37:33.935Z,15.90
2022-12-25T23:40:00.591Z,15.80
2022-12-25T23:42:27.328Z,14.40
2022-12-25T23:44:54.356Z,12.90
2022-12-25T23:47:21.069Z,14.90
2022-12-25T23:49:47.834Z,15.40
2022-12-25T23:52:14.527Z,14.90
2022-12-25T23:54:41.241Z,15.50
2022-12-25T23:59:34.678Z,15.00
